This is the latest recevied weather packets stored in our database for station/object OSTR-WX. If no packets are shown the sender has not sent any weather packets the latest 10 day(s).
| Time | Temp. | Humidity | Pressure | Rain* | Wind** | Luminosity | Snow |
|---|---|---|---|---|---|---|---|
| 1777642489 | 21.67° C | 40% | 1024.5 hPa | - | - | - | - |
| 1777641533 | 21.67° C | 39% | 1024.6 hPa | - | - | - | - |
| 1777640576 | 21.67° C | 39% | 1024.7 hPa | - | - | - | - |
| 1777639619 | 22.22° C | 40% | 1024.7 hPa | - | - | - | - |
| 1777639618 | 22.22° C | 40% | 1024.7 hPa | - | - | - | - |
| 1777638668 | 22.22° C | 38% | 1024.9 hPa | - | - | - | - |
| 1777638663 | 22.22° C | 38% | 1024.9 hPa | - | - | - | - |
| 1777638662 | 22.22° C | 38% | 1024.9 hPa | - | - | - | - |
| 1777637708 | 21.11° C | 41% | 1025.3 hPa | - | - | - | - |
| 1777637706 | 21.11° C | 41% | 1025.3 hPa | - | - | - | - |
| 1777636748 | 20.56° C | 40% | 1025.5 hPa | - | - | - | - |
| 1777635797 | 21.67° C | 40% | 1025.5 hPa | - | - | - | - |
| 1777635794 | 21.67° C | 40% | 1025.5 hPa | - | - | - | - |
| 1777635791 | 21.67° C | 40% | 1025.5 hPa | - | - | - | - |
| 1777634843 | 21.67° C | 41% | 1025.5 hPa | - | - | - | - |
| 1777634837 | 21.67° C | 41% | 1025.5 hPa | - | - | - | - |
| 1777634834 | 21.67° C | 41% | 1025.5 hPa | - | - | - | - |
| 1777633877 | 21.11° C | 42% | 1025.7 hPa | - | - | - | - |
| 1777632922 | 20.56° C | 43% | 1025.9 hPa | - | - | - | - |
| 1777632920 | 20.56° C | 43% | 1025.9 hPa | - | - | - | - |
| 1777631966 | 20° C | 43% | 1025.9 hPa | - | - | - | - |
| 1777631963 | 20° C | 43% | 1025.9 hPa | - | - | - | - |
| 1777631012 | 19.44° C | 44% | 1026.2 hPa | - | - | - | - |
| 1777631009 | 19.44° C | 44% | 1026.2 hPa | - | - | - | - |
| 1777631005 | 19.44° C | 44% | 1026.2 hPa | - | - | - | - |
* Rain since midnight (hover to see other rain measurements)
** Current wind speed in m/s (hover to see current wind gust speed)